PGT32EH LTFJ-ESSA
Flight info
| Callsign | PGT32EH |
|---|---|
| Flight time | 3h 12m |
| Altitude | 32000 |
| Route | MAKOL1J/06L MAKOL N600 RORKI DCT LUGEB DCT DIRAL DCT LAPKA DCT ETEPA/N0452F340 DCT SAT DCT KENIN DCT NUBLI N133 POLON DCT KARTI N133 PENOR/N0446F350 DCT OLANU DCT ROGMI Z229 NILUG |
| Aircraft | B738/M-SDE2E3FGHIRWXY/LB1 |
Departure
| Time | 2026-05-06 05:25 |
|---|---|
| Airport | Istanbul Sabiha Gökçen International Airport (LTFJ) |
Arrival
| Time | 2026-05-06 08:37 |
|---|---|
| Airport | Stockholm-Arlanda Airport (ESSA) |
| Time | Latitude | Longitude | Altitude | Speed | Heading |
|---|---|---|---|---|---|
| 2026-05-06 04:59 | 40.90656 | 29.32218 | 320 ft | 0 kts | 154° |
| 2026-05-06 05:10 | 40.90657 | 29.32217 | 320 ft | 2 kts | 154° |
| 2026-05-06 05:11 | 40.90679 | 29.32200 | 320 ft | 4 kts | 139° |
| 2026-05-06 05:11 | 40.90696 | 29.32174 | 318 ft | 4 kts | 115° |
| 2026-05-06 05:11 | 40.90703 | 29.32141 | 318 ft | 4 kts | 87° |
| 2026-05-06 05:11 | 40.90698 | 29.32107 | 318 ft | 4 kts | 67° |
| 2026-05-06 05:12 | 40.90693 | 29.32092 | 318 ft | 1 kts | 64° |
| 2026-05-06 05:14 | 40.90693 | 29.32093 | 318 ft | 1 kts | 64° |
| 2026-05-06 05:15 | 40.90703 | 29.32121 | 317 ft | 5 kts | 64° |
| 2026-05-06 05:15 | 40.90718 | 29.32163 | 319 ft | 5 kts | 65° |
| 2026-05-06 05:15 | 40.90735 | 29.32215 | 320 ft | 8 kts | 72° |
| 2026-05-06 05:15 | 40.90716 | 29.32275 | 320 ft | 8 kts | 148° |
| 2026-05-06 05:16 | 40.90665 | 29.32308 | 320 ft | 9 kts | 154° |
| 2026-05-06 05:16 | 40.90609 | 29.32374 | 319 ft | 12 kts | 110° |
| 2026-05-06 05:16 | 40.90549 | 29.32444 | 319 ft | 12 kts | 155° |
| 2026-05-06 05:16 | 40.90466 | 29.32494 | 318 ft | 14 kts | 155° |
| 2026-05-06 05:17 | 40.90381 | 29.32551 | 319 ft | 13 kts | 151° |
| 2026-05-06 05:17 | 40.90302 | 29.32588 | 319 ft | 10 kts | 191° |
| 2026-05-06 05:17 | 40.90259 | 29.32515 | 319 ft | 11 kts | 244° |
| 2026-05-06 05:17 | 40.90218 | 29.32404 | 319 ft | 17 kts | 244° |
| 2026-05-06 05:18 | 40.90160 | 29.32243 | 319 ft | 20 kts | 244° |
| 2026-05-06 05:18 | 40.90118 | 29.32132 | 320 ft | 1 kts | 244° |
| 2026-05-06 05:18 | 40.90108 | 29.32104 | 320 ft | 10 kts | 244° |
| 2026-05-06 05:18 | 40.90049 | 29.32053 | 320 ft | 12 kts | 155° |
| 2026-05-06 05:19 | 40.89960 | 29.32111 | 313 ft | 18 kts | 154° |
| 2026-05-06 05:19 | 40.89844 | 29.32185 | 310 ft | 19 kts | 154° |
| 2026-05-06 05:19 | 40.89729 | 29.32259 | 308 ft | 18 kts | 153° |
| 2026-05-06 05:19 | 40.89618 | 29.32332 | 305 ft | 17 kts | 154° |
| 2026-05-06 05:20 | 40.89550 | 29.32351 | 309 ft | 10 kts | 168° |
| 2026-05-06 05:20 | 40.89484 | 29.32363 | 307 ft | 10 kts | 203° |
| 2026-05-06 05:20 | 40.89440 | 29.32279 | 306 ft | 16 kts | 244° |
| 2026-05-06 05:20 | 40.89377 | 29.32108 | 307 ft | 20 kts | 244° |
| 2026-05-06 05:21 | 40.89316 | 29.31942 | 306 ft | 20 kts | 244° |
| 2026-05-06 05:21 | 40.89257 | 29.31781 | 306 ft | 19 kts | 244° |
| 2026-05-06 05:21 | 40.89199 | 29.31625 | 306 ft | 19 kts | 244° |
| 2026-05-06 05:21 | 40.89143 | 29.31474 | 306 ft | 18 kts | 244° |
| 2026-05-06 05:22 | 40.89090 | 29.31329 | 305 ft | 17 kts | 244° |
| 2026-05-06 05:22 | 40.89044 | 29.31204 | 305 ft | 15 kts | 244° |
| 2026-05-06 05:22 | 40.89000 | 29.31086 | 303 ft | 14 kts | 244° |
| 2026-05-06 05:22 | 40.88955 | 29.30962 | 296 ft | 16 kts | 244° |
| 2026-05-06 05:23 | 40.88903 | 29.30821 | 293 ft | 18 kts | 244° |
| 2026-05-06 05:23 | 40.88843 | 29.30658 | 285 ft | 21 kts | 244° |
| 2026-05-06 05:23 | 40.88714 | 29.30314 | 279 ft | 15 kts | 237° |
| 2026-05-06 05:24 | 40.88620 | 29.30311 | 279 ft | 15 kts | 155° |
| 2026-05-06 05:24 | 40.88542 | 29.30387 | 280 ft | 14 kts | 102° |
| 2026-05-06 05:24 | 40.88585 | 29.30529 | 281 ft | 31 kts | 64° |
| 2026-05-06 05:24 | 40.88797 | 29.31107 | 297 ft | 106 kts | 64° |
| 2026-05-06 05:25 | 40.89217 | 29.32246 | 327 ft | 166 kts | 64° |
| 2026-05-06 05:25 | 40.89728 | 29.33642 | 1115 ft | 165 kts | 64° |
| 2026-05-06 05:25 | 40.90055 | 29.35146 | 1846 ft | 179 kts | 95° |
| 2026-05-06 05:25 | 40.89583 | 29.36741 | 2355 ft | 204 kts | 121° |
| 2026-05-06 05:26 | 40.89179 | 29.38615 | 2580 ft | 227 kts | 85° |
| 2026-05-06 05:26 | 40.89440 | 29.40730 | 2966 ft | 239 kts | 66° |
| 2026-05-06 05:26 | 40.90523 | 29.42346 | 3533 ft | 240 kts | 26° |
| 2026-05-06 05:26 | 40.92184 | 29.42780 | 3928 ft | 253 kts | 354° |
| 2026-05-06 05:27 | 40.93942 | 29.42435 | 4719 ft | 256 kts | 349° |
| 2026-05-06 05:27 | 40.95693 | 29.42024 | 5686 ft | 255 kts | 349° |
| 2026-05-06 05:27 | 40.96851 | 29.41750 | 6296 ft | 257 kts | 348° |
| 2026-05-06 05:27 | 40.99199 | 29.41192 | 7369 ft | 261 kts | 349° |
| 2026-05-06 05:28 | 41.01000 | 29.40769 | 8170 ft | 265 kts | 349° |
| 2026-05-06 05:28 | 41.02233 | 29.40482 | 8701 ft | 267 kts | 350° |
| 2026-05-06 05:28 | 41.04078 | 29.40056 | 9496 ft | 271 kts | 350° |
| 2026-05-06 05:28 | 41.05952 | 29.39628 | 10248 ft | 276 kts | 351° |
| 2026-05-06 05:29 | 41.07896 | 29.39186 | 10675 ft | 291 kts | 351° |
| 2026-05-06 05:29 | 41.10624 | 29.38569 | 11319 ft | 307 kts | 351° |
| 2026-05-06 05:29 | 41.12053 | 29.38248 | 11764 ft | 311 kts | 351° |
| 2026-05-06 05:29 | 41.14202 | 29.37763 | 12469 ft | 315 kts | 351° |
| 2026-05-06 05:30 | 41.16371 | 29.37274 | 13240 ft | 318 kts | 351° |
| 2026-05-06 05:30 | 41.18557 | 29.36783 | 14020 ft | 320 kts | 351° |
| 2026-05-06 05:30 | 41.20758 | 29.36287 | 14694 ft | 322 kts | 351° |
| 2026-05-06 05:30 | 41.22955 | 29.35793 | 15484 ft | 320 kts | 351° |
| 2026-05-06 05:31 | 41.25160 | 29.35296 | 16122 ft | 325 kts | 351° |
| 2026-05-06 05:31 | 41.27429 | 29.34785 | 16539 ft | 336 kts | 351° |
| 2026-05-06 05:31 | 41.29719 | 29.34269 | 17384 ft | 332 kts | 351° |
| 2026-05-06 05:31 | 41.31998 | 29.33755 | 18076 ft | 334 kts | 350° |
| 2026-05-06 05:32 | 41.34344 | 29.33226 | 18296 ft | 350 kts | 350° |
| 2026-05-06 05:32 | 41.36786 | 29.32674 | 18648 ft | 360 kts | 350° |
| 2026-05-06 05:32 | 41.39271 | 29.32113 | 19137 ft | 364 kts | 350° |
| 2026-05-06 05:32 | 41.41778 | 29.31546 | 19663 ft | 367 kts | 350° |
| 2026-05-06 05:33 | 41.44299 | 29.30975 | 20288 ft | 367 kts | 350° |
| 2026-05-06 05:33 | 41.46787 | 29.30412 | 21179 ft | 359 kts | 350° |
| 2026-05-06 05:33 | 41.49244 | 29.29854 | 21800 ft | 361 kts | 350° |
| 2026-05-06 05:33 | 41.51723 | 29.29283 | 22046 ft | 371 kts | 350° |
| 2026-05-06 05:34 | 41.54266 | 29.28687 | 22595 ft | 372 kts | 350° |
| 2026-05-06 05:34 | 41.56824 | 29.28090 | 23181 ft | 373 kts | 350° |
| 2026-05-06 05:34 | 41.59374 | 29.27501 | 23849 ft | 371 kts | 350° |
| 2026-05-06 05:34 | 41.61912 | 29.26919 | 24385 ft | 370 kts | 350° |
| 2026-05-06 05:35 | 41.64453 | 29.26339 | 24849 ft | 371 kts | 350° |
| 2026-05-06 05:35 | 41.67003 | 29.25759 | 25257 ft | 374 kts | 350° |
| 2026-05-06 05:35 | 41.69580 | 29.25173 | 25664 ft | 377 kts | 350° |
| 2026-05-06 05:35 | 41.72170 | 29.24584 | 26070 ft | 379 kts | 350° |
| 2026-05-06 05:36 | 41.74778 | 29.23992 | 26482 ft | 381 kts | 350° |
| 2026-05-06 05:36 | 41.77393 | 29.23397 | 26908 ft | 382 kts | 350° |
| 2026-05-06 05:36 | 41.80022 | 29.22798 | 27278 ft | 385 kts | 350° |
| 2026-05-06 05:36 | 41.82669 | 29.22195 | 27692 ft | 386 kts | 350° |
| 2026-05-06 05:37 | 41.85322 | 29.21590 | 28116 ft | 387 kts | 350° |
| 2026-05-06 05:37 | 41.87987 | 29.20981 | 28510 ft | 389 kts | 350° |
| 2026-05-06 05:37 | 41.90660 | 29.20370 | 28916 ft | 390 kts | 349° |
| 2026-05-06 05:37 | 41.93346 | 29.19756 | 29283 ft | 392 kts | 349° |
| 2026-05-06 05:38 | 41.96044 | 29.19138 | 29617 ft | 395 kts | 349° |
| 2026-05-06 05:38 | 41.98764 | 29.18515 | 29922 ft | 398 kts | 349° |
| 2026-05-06 05:38 | 42.01507 | 29.17886 | 30228 ft | 401 kts | 349° |
| 2026-05-06 05:38 | 42.04256 | 29.17255 | 30534 ft | 402 kts | 349° |
| 2026-05-06 05:39 | 42.07016 | 29.16622 | 30827 ft | 403 kts | 349° |
| 2026-05-06 05:39 | 42.09795 | 29.15983 | 31030 ft | 407 kts | 349° |
| 2026-05-06 05:39 | 42.12598 | 29.15338 | 31186 ft | 412 kts | 349° |
| 2026-05-06 05:39 | 42.15442 | 29.14683 | 31273 ft | 418 kts | 349° |
| 2026-05-06 05:40 | 42.18340 | 29.14185 | 31398 ft | 423 kts | 356° |
| 2026-05-06 05:40 | 42.21291 | 29.14123 | 31638 ft | 425 kts | 359° |
| 2026-05-06 05:40 | 42.24243 | 29.14154 | 32008 ft | 423 kts | 360° |
| 2026-05-06 05:40 | 42.27194 | 29.14203 | 32084 ft | 427 kts | 360° |
| 2026-05-06 05:41 | 42.33132 | 29.14276 | 32093 ft | 424 kts | 359° |
| 2026-05-06 05:41 | 42.38972 | 29.14301 | 32098 ft | 418 kts | 359° |
| 2026-05-06 05:42 | 42.44807 | 29.14303 | 32098 ft | 420 kts | 359° |
| 2026-05-06 05:42 | 42.50664 | 29.14301 | 32108 ft | 422 kts | 359° |
| 2026-05-06 05:43 | 42.56508 | 29.14300 | 32107 ft | 423 kts | 359° |
| 2026-05-06 05:43 | 42.62404 | 29.14300 | 32103 ft | 424 kts | 359° |
| 2026-05-06 05:44 | 42.68312 | 29.14300 | 32099 ft | 425 kts | 359° |
| 2026-05-06 05:44 | 42.74223 | 29.14300 | 32100 ft | 424 kts | 359° |
| 2026-05-06 05:45 | 42.80119 | 29.14300 | 32100 ft | 423 kts | 359° |
| 2026-05-06 05:45 | 42.85996 | 29.14300 | 32093 ft | 422 kts | 359° |
| 2026-05-06 05:46 | 42.91850 | 29.14300 | 32097 ft | 420 kts | 359° |
| 2026-05-06 05:46 | 42.97687 | 29.14300 | 32099 ft | 419 kts | 359° |
| 2026-05-06 05:47 | 43.03513 | 29.14300 | 32101 ft | 418 kts | 359° |
| 2026-05-06 05:47 | 43.09255 | 29.13411 | 32103 ft | 417 kts | 342° |
| 2026-05-06 05:48 | 43.14387 | 29.09764 | 32109 ft | 418 kts | 325° |
| 2026-05-06 05:48 | 43.19084 | 29.05030 | 32098 ft | 420 kts | 324° |
| 2026-05-06 05:49 | 43.23791 | 29.00255 | 32095 ft | 422 kts | 324° |
| 2026-05-06 05:49 | 43.28534 | 28.95493 | 32094 ft | 423 kts | 324° |
| 2026-05-06 05:50 | 43.33298 | 28.90730 | 32092 ft | 424 kts | 325° |
| 2026-05-06 05:50 | 43.38074 | 28.85953 | 32096 ft | 425 kts | 325° |
| 2026-05-06 05:51 | 43.42853 | 28.81163 | 32091 ft | 425 kts | 325° |
| 2026-05-06 05:51 | 43.47632 | 28.76363 | 32093 ft | 425 kts | 325° |
| 2026-05-06 05:52 | 43.52407 | 28.71555 | 32090 ft | 425 kts | 325° |
| 2026-05-06 05:52 | 43.57169 | 28.66751 | 32093 ft | 424 kts | 324° |
| 2026-05-06 05:53 | 43.61917 | 28.61953 | 32089 ft | 423 kts | 324° |
| 2026-05-06 05:53 | 43.66651 | 28.57158 | 32076 ft | 422 kts | 324° |
| 2026-05-06 05:54 | 43.71344 | 28.52396 | 32075 ft | 421 kts | 324° |
| 2026-05-06 05:54 | 43.75972 | 28.47438 | 32069 ft | 421 kts | 321° |
| 2026-05-06 05:55 | 43.80386 | 28.42099 | 32071 ft | 421 kts | 320° |
| 2026-05-06 05:55 | 43.84773 | 28.36715 | 32054 ft | 422 kts | 320° |
| 2026-05-06 05:56 | 43.89180 | 28.31350 | 32043 ft | 422 kts | 320° |
| 2026-05-06 05:56 | 43.93594 | 28.26000 | 32051 ft | 421 kts | 320° |
| 2026-05-06 05:57 | 43.98009 | 28.20649 | 32055 ft | 421 kts | 320° |
| 2026-05-06 05:57 | 44.02426 | 28.15284 | 32045 ft | 422 kts | 320° |
| 2026-05-06 05:58 | 44.06843 | 28.09907 | 32030 ft | 422 kts | 320° |
| 2026-05-06 05:58 | 44.11253 | 28.04527 | 32042 ft | 422 kts | 320° |
| 2026-05-06 05:59 | 44.15664 | 27.99135 | 32038 ft | 422 kts | 320° |
| 2026-05-06 05:59 | 44.20068 | 27.93740 | 32045 ft | 422 kts | 320° |
| 2026-05-06 06:00 | 44.24469 | 27.88337 | 32044 ft | 421 kts | 320° |
| 2026-05-06 06:00 | 44.28861 | 27.82934 | 32047 ft | 420 kts | 320° |
| 2026-05-06 06:01 | 44.33238 | 27.77539 | 32046 ft | 419 kts | 320° |
| 2026-05-06 06:01 | 44.37608 | 27.72140 | 32040 ft | 419 kts | 320° |
| 2026-05-06 06:02 | 44.41974 | 27.66737 | 32045 ft | 419 kts | 320° |
| 2026-05-06 06:02 | 44.46331 | 27.61331 | 32038 ft | 418 kts | 320° |
| 2026-05-06 06:03 | 44.50683 | 27.55924 | 32038 ft | 418 kts | 320° |
| 2026-05-06 06:03 | 44.54968 | 27.50417 | 32046 ft | 418 kts | 319° |
| 2026-05-06 06:04 | 44.59169 | 27.44858 | 32048 ft | 418 kts | 319° |
| 2026-05-06 06:04 | 44.63399 | 27.39255 | 32038 ft | 418 kts | 319° |
| 2026-05-06 06:05 | 44.67632 | 27.33657 | 32044 ft | 418 kts | 319° |
| 2026-05-06 06:05 | 44.71867 | 27.28055 | 32043 ft | 418 kts | 319° |
| 2026-05-06 06:06 | 44.76101 | 27.22444 | 32054 ft | 418 kts | 319° |
| 2026-05-06 06:06 | 44.80334 | 27.16822 | 32043 ft | 418 kts | 319° |
| 2026-05-06 06:07 | 44.84564 | 27.11192 | 32041 ft | 419 kts | 319° |
| 2026-05-06 06:07 | 44.88795 | 27.05548 | 32045 ft | 419 kts | 319° |
| 2026-05-06 06:08 | 44.93022 | 26.99899 | 32057 ft | 419 kts | 319° |
| 2026-05-06 06:08 | 44.97253 | 26.94231 | 32055 ft | 419 kts | 318° |
| 2026-05-06 06:09 | 45.01480 | 26.88557 | 32045 ft | 419 kts | 318° |
| 2026-05-06 06:09 | 45.05703 | 26.82875 | 32044 ft | 419 kts | 318° |
| 2026-05-06 06:10 | 45.09921 | 26.77189 | 32045 ft | 419 kts | 318° |
| 2026-05-06 06:10 | 45.14107 | 26.71533 | 32041 ft | 419 kts | 318° |
| 2026-05-06 06:11 | 45.18313 | 26.65838 | 32048 ft | 418 kts | 318° |
| 2026-05-06 06:11 | 45.22510 | 26.60142 | 32034 ft | 417 kts | 318° |
| 2026-05-06 06:12 | 45.26697 | 26.54450 | 32049 ft | 416 kts | 318° |
| 2026-05-06 06:12 | 45.30868 | 26.48746 | 32031 ft | 416 kts | 317° |
| 2026-05-06 06:13 | 45.34991 | 26.42968 | 32025 ft | 416 kts | 317° |
| 2026-05-06 06:13 | 45.39101 | 26.37171 | 32036 ft | 416 kts | 317° |
| 2026-05-06 06:14 | 45.43208 | 26.31375 | 32031 ft | 416 kts | 317° |
| 2026-05-06 06:14 | 45.47317 | 26.25573 | 32031 ft | 416 kts | 317° |
| 2026-05-06 06:15 | 45.51428 | 26.19757 | 32033 ft | 416 kts | 317° |
| 2026-05-06 06:15 | 45.55536 | 26.13935 | 32029 ft | 416 kts | 317° |
| 2026-05-06 06:16 | 45.59641 | 26.08102 | 32036 ft | 416 kts | 317° |
| 2026-05-06 06:16 | 45.63054 | 26.03244 | 32038 ft | 417 kts | 317° |
| 2026-05-06 06:17 | 45.67159 | 25.97390 | 32031 ft | 417 kts | 317° |
| 2026-05-06 06:17 | 45.71264 | 25.91522 | 32024 ft | 417 kts | 317° |
| 2026-05-06 06:18 | 45.75364 | 25.85648 | 32037 ft | 417 kts | 317° |
| 2026-05-06 06:18 | 45.79465 | 25.79760 | 32045 ft | 417 kts | 316° |
| 2026-05-06 06:19 | 45.83565 | 25.73861 | 32046 ft | 418 kts | 316° |
| 2026-05-06 06:19 | 45.87667 | 25.67945 | 32042 ft | 418 kts | 316° |
| 2026-05-06 06:20 | 45.91766 | 25.62020 | 32036 ft | 418 kts | 316° |
| 2026-05-06 06:20 | 45.95867 | 25.56079 | 32042 ft | 419 kts | 316° |
| 2026-05-06 06:21 | 45.99968 | 25.50125 | 32035 ft | 419 kts | 316° |
| 2026-05-06 06:21 | 46.04070 | 25.44156 | 32028 ft | 420 kts | 316° |
| 2026-05-06 06:22 | 46.08142 | 25.38218 | 32018 ft | 420 kts | 315° |
| 2026-05-06 06:22 | 46.12243 | 25.32224 | 32027 ft | 420 kts | 315° |
| 2026-05-06 06:23 | 46.16342 | 25.26220 | 32026 ft | 420 kts | 315° |
| 2026-05-06 06:23 | 46.20441 | 25.20200 | 32030 ft | 421 kts | 315° |
| 2026-05-06 06:24 | 46.24540 | 25.14169 | 32031 ft | 421 kts | 315° |
| 2026-05-06 06:24 | 46.28637 | 25.08126 | 32015 ft | 421 kts | 315° |
| 2026-05-06 06:25 | 46.32736 | 25.02066 | 32018 ft | 422 kts | 315° |
| 2026-05-06 06:26 | 46.38888 | 24.92945 | 32015 ft | 422 kts | 315° |
| 2026-05-06 06:26 | 46.42987 | 24.86851 | 32017 ft | 422 kts | 315° |
| 2026-05-06 06:27 | 46.47087 | 24.80740 | 32015 ft | 423 kts | 314° |
| 2026-05-06 06:27 | 46.51185 | 24.74620 | 32016 ft | 423 kts | 314° |
| 2026-05-06 06:28 | 46.55290 | 24.68506 | 32017 ft | 423 kts | 314° |
| 2026-05-06 06:28 | 46.59421 | 24.62414 | 32026 ft | 423 kts | 315° |
| 2026-05-06 06:29 | 46.63551 | 24.56317 | 32018 ft | 423 kts | 315° |
| 2026-05-06 06:29 | 46.67675 | 24.50204 | 32016 ft | 423 kts | 314° |
| 2026-05-06 06:30 | 46.71798 | 24.44074 | 32018 ft | 423 kts | 314° |
| 2026-05-06 06:30 | 46.75917 | 24.37935 | 32018 ft | 423 kts | 314° |
| 2026-05-06 06:31 | 46.80030 | 24.31791 | 32018 ft | 423 kts | 314° |
| 2026-05-06 06:31 | 46.84140 | 24.25636 | 32011 ft | 423 kts | 314° |
| 2026-05-06 06:32 | 46.88245 | 24.19475 | 32012 ft | 423 kts | 314° |
| 2026-05-06 06:32 | 46.92345 | 24.13306 | 32016 ft | 423 kts | 314° |
| 2026-05-06 06:33 | 46.96417 | 24.07166 | 32015 ft | 423 kts | 314° |
| 2026-05-06 06:33 | 47.00513 | 24.00974 | 32015 ft | 423 kts | 314° |
| 2026-05-06 06:34 | 47.04608 | 23.94771 | 32008 ft | 423 kts | 314° |
| 2026-05-06 06:34 | 47.08698 | 23.88560 | 32007 ft | 423 kts | 313° |
| 2026-05-06 06:35 | 47.12784 | 23.82340 | 32003 ft | 423 kts | 313° |
| 2026-05-06 06:35 | 47.16863 | 23.76117 | 32008 ft | 423 kts | 313° |
| 2026-05-06 06:36 | 47.20938 | 23.69884 | 32002 ft | 423 kts | 313° |
| 2026-05-06 06:36 | 47.25007 | 23.63645 | 31993 ft | 422 kts | 313° |
| 2026-05-06 06:37 | 47.29065 | 23.57410 | 31995 ft | 422 kts | 313° |
| 2026-05-06 06:37 | 47.33118 | 23.51166 | 31992 ft | 421 kts | 313° |
| 2026-05-06 06:38 | 47.37165 | 23.44919 | 31995 ft | 421 kts | 313° |
| 2026-05-06 06:38 | 47.41209 | 23.38659 | 31992 ft | 421 kts | 313° |
| 2026-05-06 06:39 | 47.45248 | 23.32393 | 31995 ft | 421 kts | 313° |
| 2026-05-06 06:39 | 47.49287 | 23.26112 | 31985 ft | 421 kts | 313° |
| 2026-05-06 06:40 | 47.53320 | 23.19826 | 31985 ft | 421 kts | 313° |
| 2026-05-06 06:40 | 47.57346 | 23.13535 | 31992 ft | 421 kts | 312° |
| 2026-05-06 06:41 | 47.61370 | 23.07232 | 31993 ft | 421 kts | 312° |
| 2026-05-06 06:41 | 47.65393 | 23.00915 | 31994 ft | 421 kts | 312° |
| 2026-05-06 06:42 | 47.69411 | 22.94591 | 32000 ft | 421 kts | 312° |
| 2026-05-06 06:42 | 47.73436 | 22.88257 | 31994 ft | 422 kts | 313° |
| 2026-05-06 06:43 | 47.77554 | 22.82050 | 31994 ft | 422 kts | 314° |
| 2026-05-06 06:43 | 47.81706 | 22.75875 | 31979 ft | 422 kts | 314° |
| 2026-05-06 06:44 | 47.85845 | 22.69678 | 31975 ft | 422 kts | 313° |
| 2026-05-06 06:44 | 47.89978 | 22.63454 | 31977 ft | 422 kts | 313° |
| 2026-05-06 06:45 | 47.94101 | 22.57221 | 31982 ft | 422 kts | 313° |
| 2026-05-06 06:45 | 47.98227 | 22.50968 | 31973 ft | 423 kts | 313° |
| 2026-05-06 06:46 | 48.02324 | 22.44744 | 31974 ft | 423 kts | 313° |
| 2026-05-06 06:46 | 48.06446 | 22.38469 | 31976 ft | 423 kts | 313° |
| 2026-05-06 06:47 | 48.10563 | 22.32185 | 31966 ft | 423 kts | 313° |
| 2026-05-06 06:47 | 48.14679 | 22.25886 | 31971 ft | 423 kts | 313° |
| 2026-05-06 06:48 | 48.18794 | 22.19575 | 31964 ft | 424 kts | 312° |
| 2026-05-06 06:48 | 48.22908 | 22.13248 | 31963 ft | 424 kts | 312° |
| 2026-05-06 06:49 | 48.27020 | 22.06909 | 31969 ft | 424 kts | 312° |
| 2026-05-06 06:49 | 48.31132 | 22.00557 | 31964 ft | 424 kts | 312° |
| 2026-05-06 06:50 | 48.35325 | 21.94310 | 31949 ft | 426 kts | 319° |
| 2026-05-06 06:50 | 48.40443 | 21.89795 | 31970 ft | 430 kts | 334° |
| 2026-05-06 06:51 | 48.45967 | 21.86328 | 31957 ft | 431 kts | 335° |
| 2026-05-06 06:51 | 48.51514 | 21.82878 | 31964 ft | 431 kts | 335° |
| 2026-05-06 06:52 | 48.57046 | 21.79376 | 31966 ft | 431 kts | 335° |
| 2026-05-06 06:52 | 48.62536 | 21.75859 | 31956 ft | 432 kts | 335° |
| 2026-05-06 06:53 | 48.68061 | 21.72301 | 31958 ft | 432 kts | 335° |
| 2026-05-06 06:53 | 48.73584 | 21.68735 | 31949 ft | 432 kts | 335° |
| 2026-05-06 06:54 | 48.79107 | 21.65160 | 31949 ft | 431 kts | 335° |
| 2026-05-06 06:54 | 48.84623 | 21.61581 | 31945 ft | 431 kts | 334° |
| 2026-05-06 06:55 | 48.90138 | 21.57995 | 31944 ft | 431 kts | 335° |
| 2026-05-06 06:55 | 48.95647 | 21.54403 | 31927 ft | 431 kts | 335° |
| 2026-05-06 06:56 | 49.01182 | 21.50787 | 31970 ft | 438 kts | 334° |
| 2026-05-06 06:56 | 49.03998 | 21.48943 | 32087 ft | 443 kts | 334° |
| 2026-05-06 06:56 | 49.06835 | 21.47084 | 32328 ft | 444 kts | 334° |
| 2026-05-06 06:56 | 49.09668 | 21.45227 | 32716 ft | 442 kts | 334° |
| 2026-05-06 06:57 | 49.12482 | 21.43379 | 33200 ft | 438 kts | 334° |
| 2026-05-06 06:57 | 49.15270 | 21.41547 | 33616 ft | 435 kts | 334° |
| 2026-05-06 06:57 | 49.18049 | 21.39718 | 33918 ft | 435 kts | 334° |
| 2026-05-06 06:58 | 49.23652 | 21.36019 | 33902 ft | 440 kts | 334° |
| 2026-05-06 06:58 | 49.29252 | 21.32316 | 33901 ft | 435 kts | 334° |
| 2026-05-06 06:59 | 49.34781 | 21.28651 | 33904 ft | 433 kts | 334° |
| 2026-05-06 06:59 | 49.40320 | 21.24968 | 33900 ft | 434 kts | 334° |
| 2026-05-06 07:00 | 49.45868 | 21.21271 | 33897 ft | 435 kts | 333° |
| 2026-05-06 07:00 | 49.51389 | 21.17578 | 33871 ft | 436 kts | 334° |
| 2026-05-06 07:01 | 49.56959 | 21.13848 | 33867 ft | 437 kts | 333° |
| 2026-05-06 07:01 | 49.62538 | 21.10101 | 33865 ft | 437 kts | 333° |
| 2026-05-06 07:02 | 49.68125 | 21.06344 | 33854 ft | 439 kts | 334° |
| 2026-05-06 07:02 | 49.73725 | 21.02567 | 33841 ft | 440 kts | 334° |
| 2026-05-06 07:03 | 49.79335 | 20.98773 | 33833 ft | 441 kts | 333° |
| 2026-05-06 07:03 | 49.84960 | 20.94958 | 33831 ft | 442 kts | 334° |
| 2026-05-06 07:04 | 49.90594 | 20.91128 | 33843 ft | 442 kts | 333° |
| 2026-05-06 07:04 | 49.96233 | 20.87284 | 33819 ft | 443 kts | 333° |
| 2026-05-06 07:05 | 50.01882 | 20.83424 | 33821 ft | 444 kts | 333° |
| 2026-05-06 07:05 | 50.07534 | 20.79552 | 33816 ft | 444 kts | 333° |
| 2026-05-06 07:06 | 50.13194 | 20.75664 | 33814 ft | 444 kts | 333° |
| 2026-05-06 07:06 | 50.17894 | 20.72428 | 33820 ft | 444 kts | 333° |
| 2026-05-06 07:07 | 50.23549 | 20.68524 | 33807 ft | 444 kts | 333° |
| 2026-05-06 07:07 | 50.29192 | 20.64620 | 33808 ft | 444 kts | 333° |
| 2026-05-06 07:08 | 50.34834 | 20.60705 | 33813 ft | 444 kts | 333° |
| 2026-05-06 07:08 | 50.40479 | 20.56779 | 33809 ft | 444 kts | 333° |
| 2026-05-06 07:09 | 50.46125 | 20.52841 | 33811 ft | 444 kts | 333° |
| 2026-05-06 07:09 | 50.51767 | 20.48895 | 33805 ft | 444 kts | 333° |
| 2026-05-06 07:10 | 50.57416 | 20.44935 | 33799 ft | 444 kts | 333° |
| 2026-05-06 07:10 | 50.63062 | 20.40966 | 33806 ft | 445 kts | 332° |
| 2026-05-06 07:11 | 50.68720 | 20.36978 | 33800 ft | 446 kts | 332° |
| 2026-05-06 07:11 | 50.74395 | 20.32967 | 33811 ft | 447 kts | 332° |
| 2026-05-06 07:12 | 50.80082 | 20.28938 | 33800 ft | 449 kts | 332° |
| 2026-05-06 07:12 | 50.85778 | 20.24890 | 33783 ft | 449 kts | 332° |
| 2026-05-06 07:13 | 50.91478 | 20.20830 | 33785 ft | 449 kts | 332° |
| 2026-05-06 07:13 | 50.97178 | 20.16758 | 33781 ft | 450 kts | 332° |
| 2026-05-06 07:14 | 51.02892 | 20.12666 | 33794 ft | 451 kts | 332° |
| 2026-05-06 07:14 | 51.08615 | 20.08555 | 33777 ft | 452 kts | 332° |
| 2026-05-06 07:15 | 51.14349 | 20.04425 | 33771 ft | 453 kts | 332° |
| 2026-05-06 07:15 | 51.20048 | 20.00310 | 33773 ft | 453 kts | 332° |
| 2026-05-06 07:16 | 51.25789 | 19.96152 | 33767 ft | 453 kts | 332° |
| 2026-05-06 07:16 | 51.31538 | 19.91977 | 33773 ft | 455 kts | 332° |
| 2026-05-06 07:17 | 51.37334 | 19.87894 | 33752 ft | 457 kts | 337° |
| 2026-05-06 07:17 | 51.43412 | 19.84797 | 33758 ft | 459 kts | 339° |
| 2026-05-06 07:18 | 51.49507 | 19.81716 | 33762 ft | 459 kts | 339° |
| 2026-05-06 07:18 | 51.55574 | 19.78537 | 33760 ft | 459 kts | 338° |
| 2026-05-06 07:19 | 51.61644 | 19.75322 | 33746 ft | 459 kts | 338° |
| 2026-05-06 07:19 | 51.67715 | 19.72107 | 33744 ft | 459 kts | 338° |
| 2026-05-06 07:20 | 51.73782 | 19.68894 | 33757 ft | 459 kts | 339° |
| 2026-05-06 07:20 | 51.79814 | 19.65701 | 33753 ft | 459 kts | 338° |
| 2026-05-06 07:21 | 51.85876 | 19.62424 | 33748 ft | 460 kts | 338° |
| 2026-05-06 07:21 | 51.91935 | 19.59097 | 33747 ft | 460 kts | 338° |
| 2026-05-06 07:22 | 51.97997 | 19.55760 | 33746 ft | 460 kts | 338° |
| 2026-05-06 07:22 | 52.04057 | 19.52422 | 33744 ft | 460 kts | 338° |
| 2026-05-06 07:23 | 52.10126 | 19.49072 | 33742 ft | 461 kts | 338° |
| 2026-05-06 07:23 | 52.16190 | 19.45717 | 33748 ft | 460 kts | 338° |
| 2026-05-06 07:24 | 52.22258 | 19.42350 | 33738 ft | 461 kts | 338° |
| 2026-05-06 07:24 | 52.28322 | 19.38974 | 33739 ft | 460 kts | 338° |
| 2026-05-06 07:25 | 52.34376 | 19.35595 | 33739 ft | 460 kts | 338° |
| 2026-05-06 07:25 | 52.40430 | 19.32206 | 33748 ft | 459 kts | 338° |
| 2026-05-06 07:26 | 52.46472 | 19.28813 | 33741 ft | 459 kts | 338° |
| 2026-05-06 07:26 | 52.52505 | 19.25416 | 33739 ft | 459 kts | 338° |
| 2026-05-06 07:27 | 52.58544 | 19.22005 | 33751 ft | 459 kts | 338° |
| 2026-05-06 07:27 | 52.64582 | 19.18585 | 33750 ft | 459 kts | 338° |
| 2026-05-06 07:28 | 52.70628 | 19.15150 | 33754 ft | 460 kts | 337° |
| 2026-05-06 07:28 | 52.79664 | 19.09998 | 33748 ft | 460 kts | 337° |
| 2026-05-06 07:29 | 52.85709 | 19.06540 | 33751 ft | 460 kts | 337° |
| 2026-05-06 07:29 | 52.91752 | 19.03071 | 33776 ft | 460 kts | 337° |
| 2026-05-06 07:30 | 52.97798 | 18.99590 | 33774 ft | 460 kts | 337° |
| 2026-05-06 07:30 | 53.03844 | 18.96099 | 33768 ft | 460 kts | 337° |
| 2026-05-06 07:31 | 53.09896 | 18.92595 | 33765 ft | 460 kts | 337° |
| 2026-05-06 07:31 | 53.15945 | 18.89082 | 33771 ft | 461 kts | 337° |
| 2026-05-06 07:32 | 53.21998 | 18.85556 | 33768 ft | 461 kts | 337° |
| 2026-05-06 07:32 | 53.28042 | 18.82024 | 33786 ft | 460 kts | 336° |
| 2026-05-06 07:33 | 53.34088 | 18.78481 | 33796 ft | 461 kts | 336° |
| 2026-05-06 07:33 | 53.40136 | 18.74926 | 33794 ft | 461 kts | 336° |
| 2026-05-06 07:34 | 53.46179 | 18.71363 | 33785 ft | 460 kts | 336° |
| 2026-05-06 07:34 | 53.52222 | 18.67790 | 33794 ft | 460 kts | 336° |
| 2026-05-06 07:35 | 53.58256 | 18.64211 | 33801 ft | 460 kts | 336° |
| 2026-05-06 07:35 | 53.64291 | 18.60620 | 33799 ft | 459 kts | 336° |
| 2026-05-06 07:36 | 53.70315 | 18.57025 | 33808 ft | 459 kts | 336° |
| 2026-05-06 07:36 | 53.76332 | 18.53422 | 33818 ft | 459 kts | 336° |
| 2026-05-06 07:37 | 53.82355 | 18.49806 | 33816 ft | 459 kts | 336° |
| 2026-05-06 07:37 | 53.88371 | 18.46182 | 33831 ft | 459 kts | 336° |
| 2026-05-06 07:38 | 53.94396 | 18.42543 | 33826 ft | 460 kts | 336° |
| 2026-05-06 07:38 | 54.00413 | 18.38897 | 33831 ft | 459 kts | 336° |
| 2026-05-06 07:39 | 54.06433 | 18.35237 | 33847 ft | 460 kts | 336° |
| 2026-05-06 07:39 | 54.12466 | 18.31558 | 33834 ft | 460 kts | 336° |
| 2026-05-06 07:40 | 54.18470 | 18.27887 | 33865 ft | 458 kts | 336° |
| 2026-05-06 07:40 | 54.24462 | 18.24210 | 33837 ft | 456 kts | 335° |
| 2026-05-06 07:41 | 54.30420 | 18.20521 | 33838 ft | 454 kts | 334° |
| 2026-05-06 07:41 | 54.36156 | 18.16317 | 33841 ft | 450 kts | 330° |
| 2026-05-06 07:42 | 54.41848 | 18.11851 | 33863 ft | 450 kts | 330° |
| 2026-05-06 07:42 | 54.47562 | 18.07407 | 33859 ft | 451 kts | 330° |
| 2026-05-06 07:43 | 54.53297 | 18.02991 | 33862 ft | 452 kts | 330° |
| 2026-05-06 07:43 | 54.59044 | 17.98568 | 33891 ft | 453 kts | 331° |
| 2026-05-06 07:44 | 54.64802 | 17.94122 | 33875 ft | 454 kts | 331° |
| 2026-05-06 07:44 | 54.70568 | 17.89652 | 33880 ft | 455 kts | 331° |
| 2026-05-06 07:45 | 54.76341 | 17.85165 | 33886 ft | 455 kts | 330° |
| 2026-05-06 07:45 | 54.82111 | 17.80660 | 33886 ft | 455 kts | 330° |
| 2026-05-06 07:46 | 54.87880 | 17.76121 | 33889 ft | 455 kts | 330° |
| 2026-05-06 07:46 | 54.93644 | 17.71573 | 33898 ft | 455 kts | 330° |
| 2026-05-06 07:47 | 54.99417 | 17.67028 | 33892 ft | 456 kts | 331° |
| 2026-05-06 07:47 | 55.05218 | 17.62611 | 33911 ft | 455 kts | 331° |
| 2026-05-06 07:48 | 55.11006 | 17.58208 | 33900 ft | 453 kts | 331° |
| 2026-05-06 07:48 | 55.16722 | 17.53822 | 33904 ft | 450 kts | 331° |
| 2026-05-06 07:49 | 55.22441 | 17.49405 | 33909 ft | 448 kts | 330° |
| 2026-05-06 07:49 | 55.28101 | 17.44914 | 33919 ft | 446 kts | 330° |
| 2026-05-06 07:50 | 55.33735 | 17.40402 | 33940 ft | 445 kts | 329° |
| 2026-05-06 07:50 | 55.39364 | 17.35892 | 33932 ft | 444 kts | 329° |
| 2026-05-06 07:51 | 55.44987 | 17.31379 | 33929 ft | 444 kts | 329° |
| 2026-05-06 07:51 | 55.50598 | 17.26864 | 33932 ft | 443 kts | 329° |
| 2026-05-06 07:52 | 55.56204 | 17.22339 | 33936 ft | 443 kts | 329° |
| 2026-05-06 07:52 | 55.61885 | 17.18069 | 33925 ft | 450 kts | 339° |
| 2026-05-06 07:53 | 55.64987 | 17.17065 | 33970 ft | 458 kts | 350° |
| 2026-05-06 07:53 | 55.68196 | 17.17102 | 33944 ft | 466 kts | 2° |
| 2026-05-06 07:53 | 55.74628 | 17.18938 | 33951 ft | 469 kts | 6° |
| 2026-05-06 07:54 | 55.81063 | 17.20995 | 33952 ft | 470 kts | 6° |
| 2026-05-06 07:54 | 55.87507 | 17.22979 | 33962 ft | 470 kts | 5° |
| 2026-05-06 07:55 | 55.92869 | 17.24577 | 33969 ft | 470 kts | 4° |
| 2026-05-06 07:55 | 55.99334 | 17.26483 | 33965 ft | 471 kts | 4° |
| 2026-05-06 07:56 | 56.05804 | 17.28394 | 33980 ft | 471 kts | 5° |
| 2026-05-06 07:56 | 56.12280 | 17.30317 | 33982 ft | 472 kts | 5° |
| 2026-05-06 07:57 | 56.18774 | 17.32253 | 33987 ft | 474 kts | 4° |
| 2026-05-06 07:57 | 56.25294 | 17.34204 | 33984 ft | 475 kts | 4° |
| 2026-05-06 07:58 | 56.31829 | 17.36168 | 33990 ft | 477 kts | 4° |
| 2026-05-06 07:58 | 56.38383 | 17.38145 | 33988 ft | 478 kts | 4° |
| 2026-05-06 07:59 | 56.44956 | 17.40134 | 33991 ft | 480 kts | 4° |
| 2026-05-06 07:59 | 56.51545 | 17.42134 | 33995 ft | 481 kts | 4° |
| 2026-05-06 08:00 | 56.58145 | 17.44143 | 33992 ft | 481 kts | 4° |
| 2026-05-06 08:00 | 56.64751 | 17.46164 | 33996 ft | 481 kts | 4° |
| 2026-05-06 08:01 | 56.71352 | 17.48192 | 34021 ft | 481 kts | 3° |
| 2026-05-06 08:01 | 56.77918 | 17.50213 | 34002 ft | 482 kts | 3° |
| 2026-05-06 08:02 | 56.84524 | 17.52255 | 33996 ft | 482 kts | 3° |
| 2026-05-06 08:02 | 56.91130 | 17.54304 | 34000 ft | 481 kts | 3° |
| 2026-05-06 08:03 | 56.97724 | 17.56357 | 34029 ft | 481 kts | 2° |
| 2026-05-06 08:03 | 57.04322 | 17.58418 | 34016 ft | 481 kts | 2° |
| 2026-05-06 08:04 | 57.10911 | 17.60483 | 34003 ft | 480 kts | 2° |
| 2026-05-06 08:04 | 57.17492 | 17.62554 | 34008 ft | 480 kts | 2° |
| 2026-05-06 08:05 | 57.24063 | 17.64629 | 34039 ft | 479 kts | 2° |
| 2026-05-06 08:05 | 57.30633 | 17.66712 | 34010 ft | 479 kts | 1° |
| 2026-05-06 08:06 | 57.37192 | 17.68798 | 34013 ft | 478 kts | 2° |
| 2026-05-06 08:06 | 57.43730 | 17.70885 | 34015 ft | 476 kts | 2° |
| 2026-05-06 08:07 | 57.50259 | 17.73059 | 34017 ft | 477 kts | 3° |
| 2026-05-06 08:07 | 57.56762 | 17.75581 | 33972 ft | 478 kts | 4° |
| 2026-05-06 08:08 | 57.60013 | 17.76874 | 33589 ft | 475 kts | 4° |
| 2026-05-06 08:08 | 57.63218 | 17.78149 | 33214 ft | 468 kts | 4° |
| 2026-05-06 08:08 | 57.66389 | 17.79398 | 32841 ft | 463 kts | 4° |
| 2026-05-06 08:08 | 57.69531 | 17.80625 | 32433 ft | 459 kts | 4° |
| 2026-05-06 08:09 | 57.72646 | 17.81835 | 32032 ft | 455 kts | 4° |
| 2026-05-06 08:09 | 57.75739 | 17.83034 | 31647 ft | 452 kts | 4° |
| 2026-05-06 08:09 | 57.78802 | 17.84224 | 31315 ft | 448 kts | 2° |
| 2026-05-06 08:09 | 57.81848 | 17.85409 | 30916 ft | 445 kts | 2° |
| 2026-05-06 08:10 | 57.84875 | 17.86588 | 30524 ft | 442 kts | 2° |
| 2026-05-06 08:10 | 57.87876 | 17.87760 | 30147 ft | 439 kts | 2° |
| 2026-05-06 08:10 | 57.90860 | 17.88928 | 29714 ft | 436 kts | 2° |
| 2026-05-06 08:10 | 57.93818 | 17.90090 | 29315 ft | 432 kts | 2° |
| 2026-05-06 08:11 | 57.96745 | 17.91241 | 28918 ft | 428 kts | 2° |
| 2026-05-06 08:11 | 57.99605 | 17.92367 | 28548 ft | 423 kts | 2° |
| 2026-05-06 08:11 | 58.02473 | 17.93498 | 28152 ft | 420 kts | 2° |
| 2026-05-06 08:11 | 58.05318 | 17.94621 | 27821 ft | 416 kts | 2° |
| 2026-05-06 08:12 | 58.08136 | 17.95733 | 27418 ft | 413 kts | 1° |
| 2026-05-06 08:12 | 58.10943 | 17.96834 | 27020 ft | 409 kts | 0° |
| 2026-05-06 08:12 | 58.13716 | 17.97614 | 26762 ft | 398 kts | 356° |
| 2026-05-06 08:12 | 58.16449 | 17.98131 | 26505 ft | 394 kts | 354° |
| 2026-05-06 08:13 | 58.19193 | 17.98550 | 26269 ft | 398 kts | 354° |
| 2026-05-06 08:13 | 58.21973 | 17.98961 | 26022 ft | 402 kts | 354° |
| 2026-05-06 08:13 | 58.24763 | 17.99399 | 25760 ft | 401 kts | 354° |
| 2026-05-06 08:13 | 58.27527 | 17.99865 | 25524 ft | 398 kts | 355° |
| 2026-05-06 08:14 | 58.30280 | 18.00350 | 25271 ft | 396 kts | 355° |
| 2026-05-06 08:14 | 58.33012 | 18.00842 | 25053 ft | 394 kts | 355° |
| 2026-05-06 08:14 | 58.35727 | 18.01338 | 24831 ft | 391 kts | 355° |
| 2026-05-06 08:14 | 58.38436 | 18.01835 | 24590 ft | 389 kts | 355° |
| 2026-05-06 08:15 | 58.41124 | 18.02329 | 24352 ft | 388 kts | 355° |
| 2026-05-06 08:15 | 58.43806 | 18.02822 | 24115 ft | 386 kts | 355° |
| 2026-05-06 08:15 | 58.46474 | 18.03314 | 23884 ft | 385 kts | 355° |
| 2026-05-06 08:15 | 58.49135 | 18.03805 | 23647 ft | 383 kts | 355° |
| 2026-05-06 08:16 | 58.51786 | 18.04294 | 23383 ft | 382 kts | 355° |
| 2026-05-06 08:16 | 58.54427 | 18.04784 | 23095 ft | 379 kts | 355° |
| 2026-05-06 08:16 | 58.57034 | 18.05271 | 22775 ft | 374 kts | 356° |
| 2026-05-06 08:16 | 58.59613 | 18.05754 | 22427 ft | 371 kts | 356° |
| 2026-05-06 08:17 | 58.62168 | 18.06230 | 22114 ft | 367 kts | 356° |
| 2026-05-06 08:17 | 58.64700 | 18.06701 | 21741 ft | 365 kts | 356° |
| 2026-05-06 08:17 | 58.67218 | 18.07170 | 21373 ft | 362 kts | 356° |
| 2026-05-06 08:17 | 58.69716 | 18.07636 | 21024 ft | 359 kts | 356° |
| 2026-05-06 08:18 | 58.72191 | 18.08098 | 20680 ft | 356 kts | 356° |
| 2026-05-06 08:18 | 58.74648 | 18.08558 | 20342 ft | 354 kts | 356° |
| 2026-05-06 08:18 | 58.77090 | 18.09016 | 20016 ft | 351 kts | 356° |
| 2026-05-06 08:18 | 58.79511 | 18.09470 | 19674 ft | 348 kts | 356° |
| 2026-05-06 08:19 | 58.81917 | 18.09922 | 19342 ft | 346 kts | 357° |
| 2026-05-06 08:19 | 58.84274 | 18.10366 | 19019 ft | 344 kts | 357° |
| 2026-05-06 08:19 | 58.86649 | 18.10813 | 18687 ft | 342 kts | 357° |
| 2026-05-06 08:19 | 58.89012 | 18.11258 | 18365 ft | 340 kts | 357° |
| 2026-05-06 08:20 | 58.91362 | 18.11702 | 18026 ft | 338 kts | 357° |
| 2026-05-06 08:20 | 58.93706 | 18.12145 | 17489 ft | 341 kts | 357° |
| 2026-05-06 08:20 | 58.96081 | 18.12590 | 16853 ft | 343 kts | 358° |
| 2026-05-06 08:20 | 58.98457 | 18.13041 | 16196 ft | 342 kts | 358° |
| 2026-05-06 08:21 | 59.00815 | 18.13493 | 15556 ft | 339 kts | 358° |
| 2026-05-06 08:21 | 59.03154 | 18.13940 | 14935 ft | 336 kts | 359° |
| 2026-05-06 08:21 | 59.05473 | 18.14383 | 14317 ft | 333 kts | 359° |
| 2026-05-06 08:21 | 59.07761 | 18.14823 | 13814 ft | 327 kts | 359° |
| 2026-05-06 08:22 | 59.10005 | 18.15251 | 13262 ft | 321 kts | 359° |
| 2026-05-06 08:22 | 59.12204 | 18.15571 | 12717 ft | 314 kts | 358° |
| 2026-05-06 08:22 | 59.14368 | 18.15817 | 12331 ft | 308 kts | 358° |
| 2026-05-06 08:22 | 59.16493 | 18.16047 | 12071 ft | 303 kts | 358° |
| 2026-05-06 08:23 | 59.18586 | 18.16274 | 11775 ft | 300 kts | 358° |
| 2026-05-06 08:23 | 59.20688 | 18.16504 | 11261 ft | 305 kts | 359° |
| 2026-05-06 08:23 | 59.22813 | 18.16741 | 10764 ft | 308 kts | 359° |
| 2026-05-06 08:23 | 59.24963 | 18.16986 | 10254 ft | 307 kts | 360° |
| 2026-05-06 08:24 | 59.27070 | 18.17233 | 9858 ft | 299 kts | 0° |
| 2026-05-06 08:24 | 59.29119 | 18.17476 | 9431 ft | 292 kts | 0° |
| 2026-05-06 08:24 | 59.31116 | 18.17713 | 9024 ft | 284 kts | 0° |
| 2026-05-06 08:24 | 59.33071 | 18.17944 | 8599 ft | 278 kts | 0° |
| 2026-05-06 08:25 | 59.34981 | 18.18171 | 8217 ft | 272 kts | 1° |
| 2026-05-06 08:25 | 59.36839 | 18.18391 | 8076 ft | 267 kts | 0° |
| 2026-05-06 08:25 | 59.38725 | 18.18611 | 7660 ft | 273 kts | 1° |
| 2026-05-06 08:25 | 59.40625 | 18.18837 | 7271 ft | 271 kts | 1° |
| 2026-05-06 08:26 | 59.42473 | 18.19058 | 7001 ft | 262 kts | 1° |
| 2026-05-06 08:26 | 59.44282 | 18.19272 | 6750 ft | 259 kts | 1° |
| 2026-05-06 08:26 | 59.46075 | 18.19486 | 6501 ft | 257 kts | 1° |
| 2026-05-06 08:26 | 59.47852 | 18.19698 | 6233 ft | 255 kts | 1° |
| 2026-05-06 08:27 | 59.49622 | 18.19905 | 5965 ft | 253 kts | 1° |
| 2026-05-06 08:27 | 59.51377 | 18.20109 | 5707 ft | 252 kts | 1° |
| 2026-05-06 08:27 | 59.53121 | 18.20327 | 5453 ft | 251 kts | 2° |
| 2026-05-06 08:27 | 59.54849 | 18.20797 | 5183 ft | 251 kts | 8° |
| 2026-05-06 08:28 | 59.56552 | 18.21432 | 5024 ft | 248 kts | 8° |
| 2026-05-06 08:28 | 59.58239 | 18.22080 | 5005 ft | 246 kts | 8° |
| 2026-05-06 08:28 | 59.59921 | 18.22719 | 5007 ft | 247 kts | 9° |
| 2026-05-06 08:28 | 59.61607 | 18.23347 | 4999 ft | 247 kts | 8° |
| 2026-05-06 08:29 | 59.63295 | 18.23979 | 5013 ft | 248 kts | 8° |
| 2026-05-06 08:29 | 59.64999 | 18.24614 | 5006 ft | 249 kts | 8° |
| 2026-05-06 08:29 | 59.66700 | 18.25241 | 4897 ft | 246 kts | 8° |
| 2026-05-06 08:29 | 59.68354 | 18.25853 | 4647 ft | 238 kts | 8° |
| 2026-05-06 08:30 | 59.69961 | 18.26444 | 4366 ft | 232 kts | 8° |
| 2026-05-06 08:30 | 59.71522 | 18.27019 | 4085 ft | 226 kts | 8° |
| 2026-05-06 08:30 | 59.73048 | 18.27516 | 3803 ft | 218 kts | 4° |
| 2026-05-06 08:30 | 59.74494 | 18.27187 | 3549 ft | 215 kts | 332° |
| 2026-05-06 08:31 | 59.75430 | 18.25038 | 3329 ft | 209 kts | 292° |
| 2026-05-06 08:31 | 59.75963 | 18.22356 | 3034 ft | 208 kts | 291° |
| 2026-05-06 08:31 | 59.76495 | 18.19690 | 2799 ft | 209 kts | 293° |
| 2026-05-06 08:31 | 59.77036 | 18.17022 | 2526 ft | 205 kts | 291° |
| 2026-05-06 08:32 | 59.77530 | 18.14488 | 2484 ft | 189 kts | 291° |
| 2026-05-06 08:32 | 59.78002 | 18.12086 | 2477 ft | 186 kts | 291° |
| 2026-05-06 08:32 | 59.78479 | 18.09722 | 2475 ft | 183 kts | 291° |
| 2026-05-06 08:32 | 59.78948 | 18.07375 | 2452 ft | 183 kts | 291° |
| 2026-05-06 08:33 | 59.79398 | 18.05050 | 2476 ft | 180 kts | 287° |
| 2026-05-06 08:33 | 59.79368 | 18.02695 | 2479 ft | 172 kts | 242° |
| 2026-05-06 08:33 | 59.78449 | 18.01292 | 2502 ft | 172 kts | 198° |
| 2026-05-06 08:33 | 59.77284 | 18.00608 | 2502 ft | 176 kts | 199° |
| 2026-05-06 08:34 | 59.76100 | 17.99989 | 2465 ft | 177 kts | 193° |
| 2026-05-06 08:34 | 59.73769 | 17.99104 | 1968 ft | 161 kts | 191° |
| 2026-05-06 08:34 | 59.72685 | 17.98712 | 1823 ft | 156 kts | 191° |
| 2026-05-06 08:35 | 59.71623 | 17.98328 | 1577 ft | 152 kts | 191° |
| 2026-05-06 08:35 | 59.70594 | 17.97956 | 1376 ft | 148 kts | 191° |
| 2026-05-06 08:35 | 59.69568 | 17.97582 | 1149 ft | 151 kts | 192° |
| 2026-05-06 08:35 | 59.68535 | 17.97221 | 927 ft | 152 kts | 191° |
| 2026-05-06 08:36 | 59.67496 | 17.96832 | 700 ft | 152 kts | 192° |
| 2026-05-06 08:36 | 59.66449 | 17.96439 | 487 ft | 154 kts | 189° |
| 2026-05-06 08:36 | 59.65381 | 17.96072 | 263 ft | 157 kts | 189° |
| 2026-05-06 08:36 | 59.64321 | 17.95679 | 118 ft | 150 kts | 190° |
| 2026-05-06 08:37 | 59.63398 | 17.95352 | 121 ft | 114 kts | 190° |
| 2026-05-06 08:37 | 59.62977 | 17.95199 | 137 ft | 12 kts | 190° |
| 2026-05-06 08:37 | 59.62874 | 17.95163 | 142 ft | 15 kts | 190° |
| 2026-05-06 08:37 | 59.62771 | 17.95127 | 144 ft | 15 kts | 190° |
| 2026-05-06 08:38 | 59.62679 | 17.95085 | 145 ft | 13 kts | 208° |
| 2026-05-06 08:38 | 59.62684 | 17.94931 | 142 ft | 14 kts | 324° |
| 2026-05-06 08:38 | 59.62782 | 17.94851 | 138 ft | 16 kts | 339° |
| 2026-05-06 08:38 | 59.62889 | 17.94769 | 136 ft | 16 kts | 354° |
| 2026-05-06 08:39 | 59.63000 | 17.94798 | 133 ft | 16 kts | 11° |
| 2026-05-06 08:39 | 59.63116 | 17.94841 | 129 ft | 17 kts | 10° |
| 2026-05-06 08:39 | 59.63255 | 17.94891 | 125 ft | 27 kts | 10° |
| 2026-05-06 08:39 | 59.63450 | 17.94962 | 118 ft | 28 kts | 11° |
| 2026-05-06 08:40 | 59.63638 | 17.95031 | 110 ft | 27 kts | 9° |
| 2026-05-06 08:40 | 59.63815 | 17.95093 | 109 ft | 25 kts | 11° |
| 2026-05-06 08:40 | 59.63978 | 17.95155 | 108 ft | 23 kts | 11° |
| 2026-05-06 08:40 | 59.64134 | 17.95211 | 106 ft | 22 kts | 10° |
| 2026-05-06 08:41 | 59.64285 | 17.95266 | 105 ft | 22 kts | 10° |
| 2026-05-06 08:41 | 59.64432 | 17.95319 | 104 ft | 21 kts | 10° |
| 2026-05-06 08:41 | 59.64574 | 17.95369 | 104 ft | 20 kts | 10° |
| 2026-05-06 08:41 | 59.64708 | 17.95420 | 105 ft | 19 kts | 10° |
| 2026-05-06 08:42 | 59.64855 | 17.95473 | 106 ft | 26 kts | 10° |
| 2026-05-06 08:42 | 59.65052 | 17.95510 | 114 ft | 28 kts | 350° |
| 2026-05-06 08:42 | 59.65237 | 17.95414 | 120 ft | 27 kts | 345° |
| 2026-05-06 08:42 | 59.65402 | 17.95328 | 126 ft | 25 kts | 344° |
| 2026-05-06 08:43 | 59.65563 | 17.95241 | 127 ft | 23 kts | 345° |
| 2026-05-06 08:43 | 59.65705 | 17.95165 | 124 ft | 13 kts | 341° |
| 2026-05-06 08:43 | 59.65751 | 17.95024 | 125 ft | 14 kts | 257° |
| 2026-05-06 08:43 | 59.65728 | 17.94844 | 120 ft | 13 kts | 256° |
| 2026-05-06 08:44 | 59.65706 | 17.94672 | 124 ft | 13 kts | 256° |
| 2026-05-06 08:44 | 59.65685 | 17.94504 | 122 ft | 13 kts | 255° |
| 2026-05-06 08:44 | 59.65661 | 17.94321 | 125 ft | 14 kts | 256° |
| 2026-05-06 08:44 | 59.65645 | 17.94195 | 119 ft | 14 kts | 256° |
| 2026-05-06 08:45 | 59.65616 | 17.93961 | 113 ft | 19 kts | 256° |
| 2026-05-06 08:45 | 59.65536 | 17.93885 | 112 ft | 16 kts | 163° |
| 2026-05-06 08:45 | 59.65437 | 17.93933 | 112 ft | 4 kts | 167° |
| 2026-05-06 08:45 | 59.65413 | 17.93920 | 112 ft | 4 kts | 217° |
| 2026-05-06 08:46 | 59.65395 | 17.93836 | 111 ft | 9 kts | 256° |
| 2026-05-06 08:46 | 59.65391 | 17.93801 | 111 ft | 1 kts | 256° |
| 2026-05-06 08:46 | 59.65390 | 17.93795 | 111 ft | 0 kts | 256° |